sensor_id;sensor_type;location;lat;lon;timestamp;temperature;humidity
13203;DHT22;6666;51.626;7.530;2023-09-30T00:02:23;12.50;99.90
13203;DHT22;6666;51.626;7.530;2023-09-30T00:04:52;12.50;99.90
13203;DHT22;6666;51.626;7.530;2023-09-30T00:07:20;12.50;99.90
13203;DHT22;6666;51.626;7.530;2023-09-30T00:09:49;12.50;99.90
13203;DHT22;6666;51.626;7.530;2023-09-30T00:12:18;12.40;99.90
13203;DHT22;6666;51.626;7.530;2023-09-30T00:14:47;12.50;99.90
13203;DHT22;6666;51.626;7.530;2023-09-30T00:17:15;12.40;99.90
13203;DHT22;6666;51.626;7.530;2023-09-30T00:19:43;12.40;99.90
13203;DHT22;6666;51.626;7.530;2023-09-30T00:22:13;12.40;99.90
13203;DHT22;6666;51.626;7.530;2023-09-30T00:24:41;12.40;99.90
13203;DHT22;6666;51.626;7.530;2023-09-30T00:27:09;12.40;99.90
13203;DHT22;6666;51.626;7.530;2023-09-30T00:29:38;12.40;99.90
13203;DHT22;6666;51.626;7.530;2023-09-30T00:32:06;12.40;99.90
13203;DHT22;6666;51.626;7.530;2023-09-30T00:34:36;12.40;99.90
13203;DHT22;6666;51.626;7.530;2023-09-30T00:37:04;12.30;99.90
13203;DHT22;6666;51.626;7.530;2023-09-30T00:39:34;12.40;99.90
13203;DHT22;6666;51.626;7.530;2023-09-30T00:42:04;12.40;99.90
13203;DHT22;6666;51.626;7.530;2023-09-30T00:44:32;12.30;99.90
13203;DHT22;6666;51.626;7.530;2023-09-30T00:47:00;12.30;99.90
13203;DHT22;6666;51.626;7.530;2023-09-30T00:49:29;12.30;99.90
13203;DHT22;6666;51.626;7.530;2023-09-30T00:51:58;12.20;99.90
13203;DHT22;6666;51.626;7.530;2023-09-30T00:54:26;12.30;99.90
13203;DHT22;6666;51.626;7.530;2023-09-30T00:56:56;12.30;99.90
13203;DHT22;6666;51.626;7.530;2023-09-30T00:59:27;12.40;99.90
13203;DHT22;6666;51.626;7.530;2023-09-30T01:01:56;12.40;99.90
13203;DHT22;6666;51.626;7.530;2023-09-30T01:04:27;12.40;99.90
13203;DHT22;6666;51.626;7.530;2023-09-30T01:06:55;12.40;99.90
13203;DHT22;6666;51.626;7.530;2023-09-30T01:09:27;12.40;99.90
13203;DHT22;6666;51.626;7.530;2023-09-30T01:11:57;12.40;99.90
13203;DHT22;6666;51.626;7.530;2023-09-30T01:14:26;12.40;99.90
13203;DHT22;6666;51.626;7.530;2023-09-30T01:16:55;12.40;99.90
13203;DHT22;6666;51.626;7.530;2023-09-30T01:19:23;12.40;99.90
13203;DHT22;6666;51.626;7.530;2023-09-30T01:21:54;12.40;99.90
13203;DHT22;6666;51.626;7.530;2023-09-30T01:24:28;12.40;99.90
13203;DHT22;6666;51.626;7.530;2023-09-30T01:26:57;12.50;99.90
13203;DHT22;6666;51.626;7.530;2023-09-30T01:29:25;12.50;99.90
13203;DHT22;6666;51.626;7.530;2023-09-30T01:31:53;12.40;99.90
13203;DHT22;6666;51.626;7.530;2023-09-30T01:34:22;12.40;99.90
13203;DHT22;6666;51.626;7.530;2023-09-30T01:36:50;12.40;99.90
13203;DHT22;6666;51.626;7.530;2023-09-30T01:39:19;12.40;99.90
13203;DHT22;6666;51.626;7.530;2023-09-30T01:41:47;12.40;99.90
13203;DHT22;6666;51.626;7.530;2023-09-30T01:44:16;12.40;99.90
13203;DHT22;6666;51.626;7.530;2023-09-30T01:46:44;12.40;99.90
13203;DHT22;6666;51.626;7.530;2023-09-30T01:49:12;12.40;99.90
13203;DHT22;6666;51.626;7.530;2023-09-30T01:51:40;12.30;99.90
13203;DHT22;6666;51.626;7.530;2023-09-30T01:54:09;12.30;99.90
13203;DHT22;6666;51.626;7.530;2023-09-30T01:56:39;12.30;99.90
13203;DHT22;6666;51.626;7.530;2023-09-30T01:59:07;12.40;99.90
13203;DHT22;6666;51.626;7.530;2023-09-30T02:01:35;12.40;99.90
13203;DHT22;6666;51.626;7.530;2023-09-30T02:04:04;12.30;99.90
13203;DHT22;6666;51.626;7.530;2023-09-30T02:06:33;12.30;99.90
13203;DHT22;6666;51.626;7.530;2023-09-30T02:09:03;12.40;99.90
13203;DHT22;6666;51.626;7.530;2023-09-30T02:11:35;12.30;99.90
13203;DHT22;6666;51.626;7.530;2023-09-30T02:14:05;12.30;99.90
13203;DHT22;6666;51.626;7.530;2023-09-30T02:16:34;12.40;99.90
13203;DHT22;6666;51.626;7.530;2023-09-30T02:19:02;12.40;99.90
13203;DHT22;6666;51.626;7.530;2023-09-30T02:21:30;12.40;99.90
13203;DHT22;6666;51.626;7.530;2023-09-30T02:23:59;12.40;99.90
13203;DHT22;6666;51.626;7.530;2023-09-30T02:26:27;12.40;99.90
13203;DHT22;6666;51.626;7.530;2023-09-30T02:28:56;12.40;99.90
13203;DHT22;6666;51.626;7.530;2023-09-30T02:31:26;12.30;99.90
13203;DHT22;6666;51.626;7.530;2023-09-30T02:33:54;12.30;99.90
13203;DHT22;6666;51.626;7.530;2023-09-30T02:36:23;12.20;99.90
13203;DHT22;6666;51.626;7.530;2023-09-30T02:38:51;12.20;99.90
13203;DHT22;6666;51.626;7.530;2023-09-30T02:41:20;12.20;99.90
13203;DHT22;6666;51.626;7.530;2023-09-30T02:43:48;12.20;99.90
13203;DHT22;6666;51.626;7.530;2023-09-30T02:46:16;12.30;99.90
13203;DHT22;6666;51.626;7.530;2023-09-30T02:48:47;12.30;99.90
13203;DHT22;6666;51.626;7.530;2023-09-30T02:51:15;12.30;99.90
13203;DHT22;6666;51.626;7.530;2023-09-30T02:53:43;12.20;99.90
13203;DHT22;6666;51.626;7.530;2023-09-30T02:56:11;12.20;99.90
13203;DHT22;6666;51.626;7.530;2023-09-30T02:58:39;12.20;99.90
13203;DHT22;6666;51.626;7.530;2023-09-30T03:01:08;12.20;99.90
13203;DHT22;6666;51.626;7.530;2023-09-30T03:03:39;12.20;99.90
13203;DHT22;6666;51.626;7.530;2023-09-30T03:06:09;12.20;99.90
13203;DHT22;6666;51.626;7.530;2023-09-30T03:08:39;12.20;99.90
13203;DHT22;6666;51.626;7.530;2023-09-30T03:11:07;12.10;99.90
13203;DHT22;6666;51.626;7.530;2023-09-30T03:13:35;12.10;99.90
13203;DHT22;6666;51.626;7.530;2023-09-30T03:16:04;12.10;99.90
13203;DHT22;6666;51.626;7.530;2023-09-30T03:18:32;12.10;99.90
13203;DHT22;6666;51.626;7.530;2023-09-30T03:21:01;12.00;99.90
13203;DHT22;6666;51.626;7.530;2023-09-30T03:23:36;12.00;99.90
13203;DHT22;6666;51.626;7.530;2023-09-30T03:26:05;12.00;99.90
13203;DHT22;6666;51.626;7.530;2023-09-30T03:28:37;11.90;99.90
13203;DHT22;6666;51.626;7.530;2023-09-30T03:31:05;11.90;99.90
13203;DHT22;6666;51.626;7.530;2023-09-30T03:33:35;11.80;99.90
13203;DHT22;6666;51.626;7.530;2023-09-30T03:36:03;11.80;99.90
13203;DHT22;6666;51.626;7.530;2023-09-30T03:38:31;11.80;99.90
13203;DHT22;6666;51.626;7.530;2023-09-30T03:41:01;11.80;99.90
13203;DHT22;6666;51.626;7.530;2023-09-30T03:43:29;11.80;99.90
13203;DHT22;6666;51.626;7.530;2023-09-30T03:45:57;11.90;99.90
13203;DHT22;6666;51.626;7.530;2023-09-30T03:48:25;11.90;99.90
13203;DHT22;6666;51.626;7.530;2023-09-30T03:50:53;11.80;99.90
13203;DHT22;6666;51.626;7.530;2023-09-30T03:53:22;11.70;99.90
13203;DHT22;6666;51.626;7.530;2023-09-30T03:55:53;11.70;99.90
13203;DHT22;6666;51.626;7.530;2023-09-30T03:58:23;11.70;99.90
13203;DHT22;6666;51.626;7.530;2023-09-30T04:00:51;11.70;99.90
13203;DHT22;6666;51.626;7.530;2023-09-30T04:03:19;11.70;99.90
13203;DHT22;6666;51.626;7.530;2023-09-30T04:05:48;11.70;99.90
13203;DHT22;6666;51.626;7.530;2023-09-30T04:08:17;11.80;99.90
13203;DHT22;6666;51.626;7.530;2023-09-30T04:10:46;11.70;99.90
13203;DHT22;6666;51.626;7.530;2023-09-30T04:13:14;11.70;99.90
13203;DHT22;6666;51.626;7.530;2023-09-30T04:15:43;11.70;99.90
13203;DHT22;6666;51.626;7.530;2023-09-30T04:18:15;11.70;99.90
13203;DHT22;6666;51.626;7.530;2023-09-30T04:20:46;11.60;99.90
13203;DHT22;6666;51.626;7.530;2023-09-30T04:23:14;11.60;99.90
13203;DHT22;6666;51.626;7.530;2023-09-30T04:25:43;11.60;99.90
13203;DHT22;6666;51.626;7.530;2023-09-30T04:28:11;11.50;99.90
13203;DHT22;6666;51.626;7.530;2023-09-30T04:30:39;11.50;99.90
13203;DHT22;6666;51.626;7.530;2023-09-30T04:33:09;11.50;99.90
13203;DHT22;6666;51.626;7.530;2023-09-30T04:35:39;11.50;99.90
13203;DHT22;6666;51.626;7.530;2023-09-30T04:38:07;11.50;99.90
13203;DHT22;6666;51.626;7.530;2023-09-30T04:40:36;11.50;99.90
13203;DHT22;6666;51.626;7.530;2023-09-30T04:43:04;11.40;99.90
13203;DHT22;6666;51.626;7.530;2023-09-30T04:45:32;11.40;99.90
13203;DHT22;6666;51.626;7.530;2023-09-30T04:48:01;11.50;99.90
13203;DHT22;6666;51.626;7.530;2023-09-30T04:50:31;11.50;99.90
13203;DHT22;6666;51.626;7.530;2023-09-30T04:52:59;11.40;99.90
13203;DHT22;6666;51.626;7.530;2023-09-30T04:55:27;11.40;99.90
13203;DHT22;6666;51.626;7.530;2023-09-30T04:57:55;11.40;99.90
13203;DHT22;6666;51.626;7.530;2023-09-30T05:00:23;11.40;99.90
13203;DHT22;6666;51.626;7.530;2023-09-30T05:02:54;11.40;99.90
13203;DHT22;6666;51.626;7.530;2023-09-30T05:05:23;11.40;99.90
13203;DHT22;6666;51.626;7.530;2023-09-30T05:07:52;11.40;99.90
13203;DHT22;6666;51.626;7.530;2023-09-30T05:10:21;11.30;99.90
13203;DHT22;6666;51.626;7.530;2023-09-30T05:12:49;11.30;99.90
13203;DHT22;6666;51.626;7.530;2023-09-30T05:15:21;11.30;99.90
13203;DHT22;6666;51.626;7.530;2023-09-30T05:17:50;11.30;99.90
13203;DHT22;6666;51.626;7.530;2023-09-30T05:20:18;11.30;99.90
13203;DHT22;6666;51.626;7.530;2023-09-30T05:22:47;11.30;99.90
13203;DHT22;6666;51.626;7.530;2023-09-30T05:25:17;11.20;99.90
13203;DHT22;6666;51.626;7.530;2023-09-30T05:27:46;11.30;99.90
13203;DHT22;6666;51.626;7.530;2023-09-30T05:30:15;11.30;99.90
13203;DHT22;6666;51.626;7.530;2023-09-30T05:32:46;11.20;99.90
13203;DHT22;6666;51.626;7.530;2023-09-30T05:35:15;11.20;99.90
13203;DHT22;6666;51.626;7.530;2023-09-30T05:37:44;11.20;99.90
13203;DHT22;6666;51.626;7.530;2023-09-30T05:40:13;11.30;99.90
13203;DHT22;6666;51.626;7.530;2023-09-30T05:42:51;11.20;99.90
13203;DHT22;6666;51.626;7.530;2023-09-30T05:45:21;11.30;99.90
13203;DHT22;6666;51.626;7.530;2023-09-30T05:47:50;11.30;99.90
13203;DHT22;6666;51.626;7.530;2023-09-30T05:50:21;11.30;99.90
13203;DHT22;6666;51.626;7.530;2023-09-30T05:52:54;11.30;99.90
13203;DHT22;6666;51.626;7.530;2023-09-30T05:55:23;11.30;99.90
13203;DHT22;6666;51.626;7.530;2023-09-30T05:57:54;11.40;99.90
13203;DHT22;6666;51.626;7.530;2023-09-30T06:00:23;11.40;99.90
13203;DHT22;6666;51.626;7.530;2023-09-30T06:02:56;11.40;99.90
13203;DHT22;6666;51.626;7.530;2023-09-30T06:05:25;11.40;99.90
13203;DHT22;6666;51.626;7.530;2023-09-30T06:07:57;11.50;99.90
13203;DHT22;6666;51.626;7.530;2023-09-30T06:10:25;11.60;99.90
13203;DHT22;6666;51.626;7.530;2023-09-30T06:12:55;11.80;99.90
13203;DHT22;6666;51.626;7.530;2023-09-30T06:15:25;11.80;99.90
13203;DHT22;6666;51.626;7.530;2023-09-30T06:17:55;11.80;99.90
13203;DHT22;6666;51.626;7.530;2023-09-30T06:20:23;11.80;99.90
13203;DHT22;6666;51.626;7.530;2023-09-30T06:22:54;11.70;99.90
13203;DHT22;6666;51.626;7.530;2023-09-30T06:25:23;11.80;99.90
13203;DHT22;6666;51.626;7.530;2023-09-30T06:27:54;12.00;99.90
13203;DHT22;6666;51.626;7.530;2023-09-30T06:30:22;12.00;99.90
13203;DHT22;6666;51.626;7.530;2023-09-30T06:32:57;12.10;99.90
13203;DHT22;6666;51.626;7.530;2023-09-30T06:35:27;12.20;99.90
13203;DHT22;6666;51.626;7.530;2023-09-30T06:37:57;12.30;99.90
13203;DHT22;6666;51.626;7.530;2023-09-30T06:40:25;12.40;99.90
13203;DHT22;6666;51.626;7.530;2023-09-30T06:42:54;12.40;99.90
13203;DHT22;6666;51.626;7.530;2023-09-30T06:45:22;12.50;99.90
13203;DHT22;6666;51.626;7.530;2023-09-30T06:47:51;12.60;99.90
13203;DHT22;6666;51.626;7.530;2023-09-30T06:50:19;12.70;99.90
13203;DHT22;6666;51.626;7.530;2023-09-30T06:52:48;12.80;99.90
13203;DHT22;6666;51.626;7.530;2023-09-30T06:55:17;12.80;99.90
13203;DHT22;6666;51.626;7.530;2023-09-30T06:57:45;12.80;99.90
13203;DHT22;6666;51.626;7.530;2023-09-30T07:00:15;12.90;99.90
13203;DHT22;6666;51.626;7.530;2023-09-30T07:02:44;13.00;99.90
13203;DHT22;6666;51.626;7.530;2023-09-30T07:05:14;13.00;99.90
13203;DHT22;6666;51.626;7.530;2023-09-30T07:07:43;13.10;99.90
13203;DHT22;6666;51.626;7.530;2023-09-30T07:10:12;13.10;99.90
13203;DHT22;6666;51.626;7.530;2023-09-30T07:12:41;13.10;99.90
13203;DHT22;6666;51.626;7.530;2023-09-30T07:15:10;13.20;99.90
13203;DHT22;6666;51.626;7.530;2023-09-30T07:17:40;13.30;99.90
13203;DHT22;6666;51.626;7.530;2023-09-30T07:20:11;13.40;99.90
13203;DHT22;6666;51.626;7.530;2023-09-30T07:22:40;13.40;99.90
13203;DHT22;6666;51.626;7.530;2023-09-30T07:25:11;13.50;99.90
13203;DHT22;6666;51.626;7.530;2023-09-30T07:27:41;13.60;99.90
13203;DHT22;6666;51.626;7.530;2023-09-30T07:30:10;13.60;99.90
13203;DHT22;6666;51.626;7.530;2023-09-30T07:32:41;13.60;99.90
13203;DHT22;6666;51.626;7.530;2023-09-30T07:35:10;13.70;99.90
13203;DHT22;6666;51.626;7.530;2023-09-30T07:37:38;13.70;99.90
13203;DHT22;6666;51.626;7.530;2023-09-30T07:40:08;13.80;99.90
13203;DHT22;6666;51.626;7.530;2023-09-30T07:42:37;13.80;99.90
13203;DHT22;6666;51.626;7.530;2023-09-30T07:45:06;13.80;99.90
13203;DHT22;6666;51.626;7.530;2023-09-30T07:47:35;13.90;99.90
13203;DHT22;6666;51.626;7.530;2023-09-30T07:50:06;14.00;99.90
13203;DHT22;6666;51.626;7.530;2023-09-30T07:52:37;14.00;99.90
13203;DHT22;6666;51.626;7.530;2023-09-30T07:55:07;14.10;99.90
13203;DHT22;6666;51.626;7.530;2023-09-30T07:57:36;14.20;99.90
13203;DHT22;6666;51.626;7.530;2023-09-30T08:00:06;14.20;99.90
13203;DHT22;6666;51.626;7.530;2023-09-30T08:02:37;14.40;99.90
13203;DHT22;6666;51.626;7.530;2023-09-30T08:05:08;14.30;99.90
13203;DHT22;6666;51.626;7.530;2023-09-30T08:07:36;14.40;99.90
13203;DHT22;6666;51.626;7.530;2023-09-30T08:10:05;14.40;99.90
13203;DHT22;6666;51.626;7.530;2023-09-30T08:12:39;14.50;99.90
13203;DHT22;6666;51.626;7.530;2023-09-30T08:15:08;14.60;99.90
13203;DHT22;6666;51.626;7.530;2023-09-30T08:17:39;14.60;99.90
13203;DHT22;6666;51.626;7.530;2023-09-30T08:20:09;14.70;99.90
13203;DHT22;6666;51.626;7.530;2023-09-30T08:22:38;14.70;99.90
13203;DHT22;6666;51.626;7.530;2023-09-30T08:25:07;14.80;99.90
13203;DHT22;6666;51.626;7.530;2023-09-30T08:27:36;14.90;99.90
13203;DHT22;6666;51.626;7.530;2023-09-30T08:30:06;14.90;99.90
13203;DHT22;6666;51.626;7.530;2023-09-30T08:32:35;15.00;99.90
13203;DHT22;6666;51.626;7.530;2023-09-30T08:35:04;15.10;99.90
13203;DHT22;6666;51.626;7.530;2023-09-30T08:37:35;15.20;99.90
13203;DHT22;6666;51.626;7.530;2023-09-30T08:40:04;15.30;99.90
13203;DHT22;6666;51.626;7.530;2023-09-30T08:42:33;15.30;99.90
13203;DHT22;6666;51.626;7.530;2023-09-30T08:45:02;15.40;99.90
13203;DHT22;6666;51.626;7.530;2023-09-30T08:47:33;15.40;99.90
13203;DHT22;6666;51.626;7.530;2023-09-30T08:50:05;15.40;99.90
13203;DHT22;6666;51.626;7.530;2023-09-30T08:52:38;15.40;99.90
13203;DHT22;6666;51.626;7.530;2023-09-30T08:55:08;15.50;99.90
13203;DHT22;6666;51.626;7.530;2023-09-30T08:57:37;15.50;99.90
13203;DHT22;6666;51.626;7.530;2023-09-30T09:00:09;15.50;99.90
13203;DHT22;6666;51.626;7.530;2023-09-30T09:02:39;15.60;99.90
13203;DHT22;6666;51.626;7.530;2023-09-30T09:05:08;15.70;99.90
13203;DHT22;6666;51.626;7.530;2023-09-30T09:07:39;15.70;99.90
13203;DHT22;6666;51.626;7.530;2023-09-30T09:10:11;15.80;99.90
13203;DHT22;6666;51.626;7.530;2023-09-30T09:12:41;15.90;99.90
13203;DHT22;6666;51.626;7.530;2023-09-30T09:15:21;16.10;99.90
13203;DHT22;6666;51.626;7.530;2023-09-30T09:17:50;16.10;99.90
13203;DHT22;6666;51.626;7.530;2023-09-30T09:20:20;16.20;99.90
13203;DHT22;6666;51.626;7.530;2023-09-30T09:22:51;16.30;99.90
13203;DHT22;6666;51.626;7.530;2023-09-30T09:25:21;16.50;99.90
13203;DHT22;6666;51.626;7.530;2023-09-30T09:27:51;16.50;99.90
13203;DHT22;6666;51.626;7.530;2023-09-30T09:30:22;16.50;99.90
13203;DHT22;6666;51.626;7.530;2023-09-30T09:33:01;16.50;99.90
13203;DHT22;6666;51.626;7.530;2023-09-30T09:35:30;16.50;99.90
13203;DHT22;6666;51.626;7.530;2023-09-30T09:38:02;16.40;99.90
13203;DHT22;6666;51.626;7.530;2023-09-30T09:40:31;16.50;99.90
13203;DHT22;6666;51.626;7.530;2023-09-30T09:43:01;16.40;99.90
13203;DHT22;6666;51.626;7.530;2023-09-30T09:45:33;16.40;99.90
13203;DHT22;6666;51.626;7.530;2023-09-30T09:48:03;16.20;99.90
13203;DHT22;6666;51.626;7.530;2023-09-30T09:50:32;16.20;99.90
13203;DHT22;6666;51.626;7.530;2023-09-30T09:53:04;16.00;99.90
13203;DHT22;6666;51.626;7.530;2023-09-30T09:55:33;16.00;99.90
13203;DHT22;6666;51.626;7.530;2023-09-30T09:58:06;15.90;99.90
13203;DHT22;6666;51.626;7.530;2023-09-30T10:00:38;15.90;99.90
13203;DHT22;6666;51.626;7.530;2023-09-30T10:03:07;15.90;99.90
13203;DHT22;6666;51.626;7.530;2023-09-30T10:05:36;15.90;99.90
13203;DHT22;6666;51.626;7.530;2023-09-30T10:08:11;15.90;99.90
13203;DHT22;6666;51.626;7.530;2023-09-30T10:10:40;15.90;99.90
13203;DHT22;6666;51.626;7.530;2023-09-30T10:13:08;15.90;99.90
13203;DHT22;6666;51.626;7.530;2023-09-30T10:15:39;15.90;99.90
13203;DHT22;6666;51.626;7.530;2023-09-30T10:18:09;15.90;99.90
13203;DHT22;6666;51.626;7.530;2023-09-30T10:20:43;16.00;99.90
13203;DHT22;6666;51.626;7.530;2023-09-30T10:23:24;16.00;99.90
13203;DHT22;6666;51.626;7.530;2023-09-30T10:25:53;16.00;99.90
13203;DHT22;6666;51.626;7.530;2023-09-30T10:28:35;16.10;99.90
13203;DHT22;6666;51.626;7.530;2023-09-30T10:31:11;16.10;99.90
13203;DHT22;6666;51.626;7.530;2023-09-30T10:34:18;16.20;99.90
13203;DHT22;6666;51.626;7.530;2023-09-30T10:36:48;16.40;99.90
13203;DHT22;6666;51.626;7.530;2023-09-30T10:42:51;16.80;99.90
13203;DHT22;6666;51.626;7.530;2023-09-30T10:45:43;17.00;99.90
13203;DHT22;6666;51.626;7.530;2023-09-30T10:48:35;17.20;99.90
13203;DHT22;6666;51.626;7.530;2023-09-30T10:51:14;17.50;99.90
13203;DHT22;6666;51.626;7.530;2023-09-30T10:53:45;17.70;99.90
13203;DHT22;6666;51.626;7.530;2023-09-30T10:56:14;17.70;99.90
13203;DHT22;6666;51.626;7.530;2023-09-30T10:58:44;17.70;99.90
13203;DHT22;6666;51.626;7.530;2023-09-30T11:01:14;17.90;99.90
13203;DHT22;6666;51.626;7.530;2023-09-30T11:03:44;17.90;99.90
13203;DHT22;6666;51.626;7.530;2023-09-30T11:06:14;18.00;99.90
13203;DHT22;6666;51.626;7.530;2023-09-30T11:08:46;18.10;99.90
13203;DHT22;6666;51.626;7.530;2023-09-30T11:11:14;18.00;99.90
13203;DHT22;6666;51.626;7.530;2023-09-30T11:13:44;17.90;99.90
13203;DHT22;6666;51.626;7.530;2023-09-30T11:16:12;18.10;99.90
13203;DHT22;6666;51.626;7.530;2023-09-30T11:18:40;18.20;99.90
13203;DHT22;6666;51.626;7.530;2023-09-30T11:21:10;18.30;99.90
13203;DHT22;6666;51.626;7.530;2023-09-30T11:23:40;18.30;99.90
13203;DHT22;6666;51.626;7.530;2023-09-30T11:26:09;18.30;99.90
13203;DHT22;6666;51.626;7.530;2023-09-30T11:28:39;18.20;99.90
13203;DHT22;6666;51.626;7.530;2023-09-30T11:31:10;18.00;99.90
13203;DHT22;6666;51.626;7.530;2023-09-30T11:33:49;17.90;99.90
13203;DHT22;6666;51.626;7.530;2023-09-30T11:36:20;17.90;99.90
13203;DHT22;6666;51.626;7.530;2023-09-30T11:38:50;17.90;99.90
13203;DHT22;6666;51.626;7.530;2023-09-30T11:41:20;17.80;99.90
13203;DHT22;6666;51.626;7.530;2023-09-30T11:43:59;17.80;99.90
13203;DHT22;6666;51.626;7.530;2023-09-30T11:46:30;18.00;99.90
13203;DHT22;6666;51.626;7.530;2023-09-30T11:49:02;18.20;99.90
13203;DHT22;6666;51.626;7.530;2023-09-30T11:51:42;18.20;99.90
13203;DHT22;6666;51.626;7.530;2023-09-30T11:54:12;18.10;99.90
13203;DHT22;6666;51.626;7.530;2023-09-30T11:56:41;18.00;99.90
13203;DHT22;6666;51.626;7.530;2023-09-30T11:59:09;17.80;99.90
13203;DHT22;6666;51.626;7.530;2023-09-30T12:01:39;17.90;99.90
13203;DHT22;6666;51.626;7.530;2023-09-30T12:04:07;17.90;99.90
13203;DHT22;6666;51.626;7.530;2023-09-30T12:06:36;18.00;99.90
13203;DHT22;6666;51.626;7.530;2023-09-30T12:09:05;18.10;99.90
13203;DHT22;6666;51.626;7.530;2023-09-30T12:11:38;18.30;99.90
13203;DHT22;6666;51.626;7.530;2023-09-30T12:14:06;18.30;99.90
13203;DHT22;6666;51.626;7.530;2023-09-30T12:16:34;18.30;99.90
13203;DHT22;6666;51.626;7.530;2023-09-30T12:19:04;18.50;99.90
13203;DHT22;6666;51.626;7.530;2023-09-30T12:21:33;18.60;99.90
13203;DHT22;6666;51.626;7.530;2023-09-30T12:24:03;18.60;99.90
13203;DHT22;6666;51.626;7.530;2023-09-30T12:26:32;18.50;99.90
13203;DHT22;6666;51.626;7.530;2023-09-30T12:29:00;18.50;99.90
13203;DHT22;6666;51.626;7.530;2023-09-30T12:31:28;18.50;99.90
13203;DHT22;6666;51.626;7.530;2023-09-30T12:34:18;18.50;99.90
13203;DHT22;6666;51.626;7.530;2023-09-30T12:36:46;18.70;99.90
13203;DHT22;6666;51.626;7.530;2023-09-30T12:39:14;18.50;99.90
13203;DHT22;6666;51.626;7.530;2023-09-30T12:41:44;18.60;99.90
13203;DHT22;6666;51.626;7.530;2023-09-30T12:44:13;18.50;99.90
13203;DHT22;6666;51.626;7.530;2023-09-30T12:46:42;18.40;99.90
13203;DHT22;6666;51.626;7.530;2023-09-30T12:49:10;18.40;99.90
13203;DHT22;6666;51.626;7.530;2023-09-30T12:51:40;18.30;99.90
13203;DHT22;6666;51.626;7.530;2023-09-30T12:54:08;18.30;99.90
13203;DHT22;6666;51.626;7.530;2023-09-30T12:56:38;18.30;99.90
13203;DHT22;6666;51.626;7.530;2023-09-30T12:59:06;18.40;99.90
13203;DHT22;6666;51.626;7.530;2023-09-30T13:01:36;18.50;99.90
13203;DHT22;6666;51.626;7.530;2023-09-30T13:04:04;18.60;99.90
13203;DHT22;6666;51.626;7.530;2023-09-30T13:06:35;18.60;99.90
13203;DHT22;6666;51.626;7.530;2023-09-30T13:09:05;18.50;99.90
13203;DHT22;6666;51.626;7.530;2023-09-30T13:11:35;18.40;99.90
13203;DHT22;6666;51.626;7.530;2023-09-30T13:14:04;18.30;99.90
13203;DHT22;6666;51.626;7.530;2023-09-30T13:16:32;18.20;99.90
13203;DHT22;6666;51.626;7.530;2023-09-30T13:19:00;18.20;99.90
13203;DHT22;6666;51.626;7.530;2023-09-30T13:21:29;18.10;99.90
13203;DHT22;6666;51.626;7.530;2023-09-30T13:23:58;18.00;99.90
13203;DHT22;6666;51.626;7.530;2023-09-30T13:26:27;18.00;99.90
13203;DHT22;6666;51.626;7.530;2023-09-30T13:28:57;18.00;99.90
13203;DHT22;6666;51.626;7.530;2023-09-30T13:31:25;18.00;99.90
13203;DHT22;6666;51.626;7.530;2023-09-30T13:33:54;18.10;99.90
13203;DHT22;6666;51.626;7.530;2023-09-30T13:36:22;18.20;99.90
13203;DHT22;6666;51.626;7.530;2023-09-30T13:38:50;18.40;99.90
13203;DHT22;6666;51.626;7.530;2023-09-30T13:41:18;18.40;99.90
13203;DHT22;6666;51.626;7.530;2023-09-30T13:43:48;18.40;99.90
13203;DHT22;6666;51.626;7.530;2023-09-30T13:46:16;18.40;99.90
13203;DHT22;6666;51.626;7.530;2023-09-30T13:48:44;18.20;99.90
13203;DHT22;6666;51.626;7.530;2023-09-30T13:51:13;18.20;99.90
13203;DHT22;6666;51.626;7.530;2023-09-30T13:53:41;18.20;99.90
13203;DHT22;6666;51.626;7.530;2023-09-30T13:56:10;18.20;99.90
13203;DHT22;6666;51.626;7.530;2023-09-30T13:58:38;18.30;99.90
13203;DHT22;6666;51.626;7.530;2023-09-30T14:01:08;18.40;99.90
13203;DHT22;6666;51.626;7.530;2023-09-30T14:03:37;18.40;99.90
13203;DHT22;6666;51.626;7.530;2023-09-30T14:06:09;18.50;99.90
13203;DHT22;6666;51.626;7.530;2023-09-30T14:08:39;18.60;99.90
13203;DHT22;6666;51.626;7.530;2023-09-30T14:11:09;18.70;99.90
13203;DHT22;6666;51.626;7.530;2023-09-30T14:13:38;18.70;99.90
13203;DHT22;6666;51.626;7.530;2023-09-30T14:16:08;18.70;99.90
13203;DHT22;6666;51.626;7.530;2023-09-30T14:18:36;18.70;99.90
13203;DHT22;6666;51.626;7.530;2023-09-30T14:21:06;18.70;99.90
13203;DHT22;6666;51.626;7.530;2023-09-30T14:23:35;18.60;99.90
13203;DHT22;6666;51.626;7.530;2023-09-30T14:26:06;18.50;99.90
13203;DHT22;6666;51.626;7.530;2023-09-30T14:28:38;18.40;99.90
13203;DHT22;6666;51.626;7.530;2023-09-30T14:31:07;18.40;99.90
13203;DHT22;6666;51.626;7.530;2023-09-30T14:33:35;18.30;99.90
13203;DHT22;6666;51.626;7.530;2023-09-30T14:36:04;18.10;99.90
13203;DHT22;6666;51.626;7.530;2023-09-30T14:38:33;18.10;99.90
13203;DHT22;6666;51.626;7.530;2023-09-30T14:41:05;18.10;99.90
13203;DHT22;6666;51.626;7.530;2023-09-30T14:43:33;18.00;99.90
13203;DHT22;6666;51.626;7.530;2023-09-30T14:46:02;18.10;99.90
13203;DHT22;6666;51.626;7.530;2023-09-30T14:48:32;18.10;99.90
13203;DHT22;6666;51.626;7.530;2023-09-30T14:51:00;18.20;99.90
13203;DHT22;6666;51.626;7.530;2023-09-30T14:53:31;18.20;99.90
13203;DHT22;6666;51.626;7.530;2023-09-30T14:55:59;18.20;99.90
13203;DHT22;6666;51.626;7.530;2023-09-30T14:58:27;18.20;99.90
13203;DHT22;6666;51.626;7.530;2023-09-30T15:00:56;18.20;99.90
13203;DHT22;6666;51.626;7.530;2023-09-30T15:03:25;18.20;99.90
13203;DHT22;6666;51.626;7.530;2023-09-30T15:05:58;18.10;99.90
13203;DHT22;6666;51.626;7.530;2023-09-30T15:08:28;18.10;99.90
13203;DHT22;6666;51.626;7.530;2023-09-30T15:10:58;18.20;99.90
13203;DHT22;6666;51.626;7.530;2023-09-30T15:13:27;18.10;99.90
13203;DHT22;6666;51.626;7.530;2023-09-30T15:15:56;18.00;99.90
13203;DHT22;6666;51.626;7.530;2023-09-30T15:18:24;18.00;99.90
13203;DHT22;6666;51.626;7.530;2023-09-30T15:20:52;18.00;99.90
13203;DHT22;6666;51.626;7.530;2023-09-30T15:23:22;18.00;99.90
13203;DHT22;6666;51.626;7.530;2023-09-30T15:25:50;18.00;99.90
13203;DHT22;6666;51.626;7.530;2023-09-30T15:28:18;18.00;99.90
13203;DHT22;6666;51.626;7.530;2023-09-30T15:30:50;17.90;99.90
13203;DHT22;6666;51.626;7.530;2023-09-30T15:33:19;17.90;99.90
13203;DHT22;6666;51.626;7.530;2023-09-30T15:35:47;17.90;99.90
13203;DHT22;6666;51.626;7.530;2023-09-30T15:38:15;17.80;99.90
13203;DHT22;6666;51.626;7.530;2023-09-30T15:40:52;17.70;99.90
13203;DHT22;6666;51.626;7.530;2023-09-30T15:43:21;17.70;99.90
13203;DHT22;6666;51.626;7.530;2023-09-30T15:45:50;17.70;99.90
13203;DHT22;6666;51.626;7.530;2023-09-30T15:48:18;17.70;99.90
13203;DHT22;6666;51.626;7.530;2023-09-30T15:50:47;17.70;99.90
13203;DHT22;6666;51.626;7.530;2023-09-30T15:53:15;17.60;99.90
13203;DHT22;6666;51.626;7.530;2023-09-30T15:55:45;17.50;99.90
13203;DHT22;6666;51.626;7.530;2023-09-30T15:58:15;17.40;99.90
13203;DHT22;6666;51.626;7.530;2023-09-30T16:00:43;17.30;99.90
13203;DHT22;6666;51.626;7.530;2023-09-30T16:03:11;17.30;99.90
13203;DHT22;6666;51.626;7.530;2023-09-30T16:05:40;17.30;99.90